createdAt,value
2019-03-04T00:00:16.667Z,1005.8
2019-03-04T00:01:16.678Z,1005.8
2019-03-04T00:02:16.685Z,1005.8
2019-03-04T00:03:16.723Z,1005.8
2019-03-04T00:04:16.756Z,1005.8
2019-03-04T00:05:16.782Z,1005.8
2019-03-04T00:06:16.796Z,1005.7
2019-03-04T00:07:16.823Z,1005.8
2019-03-04T00:08:16.867Z,1005.7
2019-03-04T00:09:16.858Z,1005.8
2019-03-04T00:10:16.907Z,1005.7
2019-03-04T00:11:16.877Z,1005.8
2019-03-04T00:12:17.076Z,1005.9
2019-03-04T00:13:16.930Z,1005.9
2019-03-04T00:14:16.952Z,1005.8
2019-03-04T00:15:16.936Z,1005.8
2019-03-04T00:16:16.979Z,1005.8
2019-03-04T00:17:16.965Z,1005.8
2019-03-04T00:18:16.987Z,1005.8
2019-03-04T00:19:17.087Z,1006
2019-03-04T00:20:17.027Z,1005.9
2019-03-04T00:21:17.029Z,1005.9
2019-03-04T00:22:17.049Z,1005.9
2019-03-04T00:23:17.038Z,1005.9
2019-03-04T00:24:17.060Z,1005.8
2019-03-04T00:25:17.072Z,1005.8
2019-03-04T00:26:17.091Z,1005.9
2019-03-04T00:27:17.093Z,1005.8
2019-03-04T00:28:17.107Z,1005.7
2019-03-04T00:29:17.160Z,1005.8
2019-03-04T00:30:17.118Z,1005.7
2019-03-04T00:31:17.132Z,1005.7
2019-03-04T00:32:17.130Z,1005.7
2019-03-04T00:33:17.142Z,1005.7
2019-03-04T00:34:17.164Z,1005.7
2019-03-04T00:35:17.154Z,1005.7
2019-03-04T00:36:17.164Z,1005.6
2019-03-04T00:37:17.149Z,1005.7
2019-03-04T00:38:17.215Z,1005.6
2019-03-04T00:39:17.173Z,1005.6
2019-03-04T00:40:17.158Z,1005.6
2019-03-04T00:41:17.160Z,1005.6
2019-03-04T00:42:17.207Z,1005.5
2019-03-04T00:43:49.477Z,1005.6
2019-03-04T00:44:17.214Z,1005.5
2019-03-04T00:45:17.228Z,1005.6
2019-03-04T00:46:17.203Z,1005.5
2019-03-04T00:47:17.203Z,1005.5
2019-03-04T00:48:17.201Z,1005.5
2019-03-04T00:49:17.262Z,1005.4
2019-03-04T00:50:17.286Z,1005.4
2019-03-04T00:51:17.243Z,1005.5
2019-03-04T00:52:17.252Z,1005.5
2019-03-04T00:53:17.235Z,1005.5
2019-03-04T00:54:17.335Z,1005.4
2019-03-04T00:55:17.261Z,1005.6
2019-03-04T00:56:17.255Z,1005.4
2019-03-04T00:57:17.309Z,1005.5
2019-03-04T00:58:17.258Z,1005.5
2019-03-04T00:59:17.295Z,1005.4
2019-03-04T01:00:17.270Z,1005.5
2019-03-04T01:01:17.337Z,1005.4
2019-03-04T01:02:17.328Z,1005.4
2019-03-04T01:03:17.343Z,1005.4
2019-03-04T01:04:17.314Z,1005.4
2019-03-04T01:05:17.283Z,1005.5
2019-03-04T01:06:17.316Z,1005.5
2019-03-04T01:07:17.316Z,1005.5
2019-03-04T01:08:17.326Z,1005.6
2019-03-04T01:09:17.323Z,1005.4
2019-03-04T01:10:17.306Z,1005.5
2019-03-04T01:11:17.325Z,1005.5
2019-03-04T01:12:17.365Z,1005.4
2019-03-04T01:13:19.829Z,1005.3
2019-03-04T01:14:17.346Z,1005.3
2019-03-04T01:15:17.396Z,1005.2
2019-03-04T01:16:17.584Z,1005.3
2019-03-04T01:17:17.462Z,1005.3
2019-03-04T01:18:17.495Z,1005.3
2019-03-04T01:19:17.479Z,1005.3
2019-03-04T01:20:17.514Z,1005.2
2019-03-04T01:21:17.555Z,1005.2
2019-03-04T01:22:17.787Z,1005.1
2019-03-04T01:23:17.602Z,1005.1
2019-03-04T01:24:17.574Z,1005.2
2019-03-04T01:25:17.603Z,1005.2
2019-03-04T01:26:17.670Z,1005
2019-03-04T01:27:17.657Z,1005
2019-03-04T01:28:17.798Z,1005
2019-03-04T01:29:17.711Z,1005
2019-03-04T01:30:17.700Z,1004.9
2019-03-04T01:31:17.707Z,1004.8
2019-03-04T01:32:17.743Z,1004.8
2019-03-04T01:33:17.722Z,1004.8
2019-03-04T01:34:17.787Z,1005
2019-03-04T01:35:17.779Z,1004.9
2019-03-04T01:36:17.786Z,1004.8
2019-03-04T01:37:17.816Z,1004.8
2019-03-04T01:38:17.829Z,1004.8
2019-03-04T01:39:17.824Z,1004.7
2019-03-04T01:40:17.800Z,1004.8
2019-03-04T01:41:17.844Z,1004.6
2019-03-04T01:42:17.809Z,1004.6
2019-03-04T01:43:17.841Z,1004.7
2019-03-04T01:44:17.848Z,1004.5
2019-03-04T01:45:17.877Z,1004.6
2019-03-04T01:46:17.852Z,1004.6
2019-03-04T01:47:17.864Z,1004.6
2019-03-04T01:48:17.846Z,1004.5
2019-03-04T01:49:17.890Z,1004.5
2019-03-04T01:50:17.874Z,1004.5
2019-03-04T01:51:17.901Z,1004.5
2019-03-04T01:52:17.867Z,1004.5
2019-03-04T01:53:17.927Z,1004.5
2019-03-04T01:54:17.882Z,1004.5
2019-03-04T01:55:17.888Z,1004.5
2019-03-04T01:56:17.886Z,1004.5
2019-03-04T01:57:17.928Z,1004.6
2019-03-04T01:58:17.928Z,1004.6
2019-03-04T01:59:17.894Z,1004.5
2019-03-04T02:00:17.969Z,1004.5
2019-03-04T02:01:18.014Z,1004.6
2019-03-04T02:02:18.023Z,1004.5
2019-03-04T02:03:18.060Z,1004.4
2019-03-04T02:04:18.076Z,1004.6
2019-03-04T02:05:18.064Z,1004.5
2019-03-04T02:06:18.144Z,1004.6
2019-03-04T02:07:18.177Z,1004.6
2019-03-04T02:08:18.204Z,1004.6
2019-03-04T02:09:18.246Z,1004.5
2019-03-04T02:10:18.243Z,1004.5
2019-03-04T02:11:18.327Z,1004.4
2019-03-04T02:12:18.472Z,1004.6
2019-03-04T02:13:21.779Z,1004.7
2019-03-04T02:14:18.426Z,1004.6
2019-03-04T02:15:18.434Z,1004.6
2019-03-04T02:16:18.458Z,1004.6
2019-03-04T02:17:18.484Z,1004.5
2019-03-04T02:18:18.510Z,1004.6
2019-03-04T02:19:18.557Z,1004.6
2019-03-04T02:20:18.584Z,1004.6
2019-03-04T02:21:18.605Z,1004.6
2019-03-04T02:22:18.625Z,1004.6
2019-03-04T02:23:18.650Z,1004.6
2019-03-04T02:24:18.691Z,1004.7
2019-03-04T02:25:18.727Z,1004.7
2019-03-04T02:26:18.729Z,1004.7
2019-03-04T02:27:18.800Z,1004.7
2019-03-04T02:28:21.030Z,1004.6
2019-03-04T02:29:18.838Z,1004.6
2019-03-04T02:30:18.832Z,1004.6
2019-03-04T02:31:18.838Z,1004.6
2019-03-04T02:32:18.949Z,1004.5
2019-03-04T02:33:18.894Z,1004.5
2019-03-04T02:34:18.954Z,1004.5
2019-03-04T02:35:18.950Z,1004.5
2019-03-04T02:36:19.091Z,1004.4
2019-03-04T02:37:19.014Z,1004.5
2019-03-04T02:38:19.009Z,1004.4
2019-03-04T02:39:19.023Z,1004.4
2019-03-04T02:40:19.019Z,1004.3
2019-03-04T02:41:19.047Z,1004.3
2019-03-04T02:42:19.087Z,1004.2
2019-03-04T02:43:19.086Z,1004.2
2019-03-04T02:44:19.131Z,1004.2
2019-03-04T02:45:19.108Z,1004.1
2019-03-04T02:46:19.130Z,1004.2
2019-03-04T02:47:19.147Z,1004.1
2019-03-04T02:48:19.169Z,1004.1
2019-03-04T02:49:19.168Z,1004.1
2019-03-04T02:50:19.155Z,1004.2
2019-03-04T02:51:19.168Z,1004.1
2019-03-04T02:52:19.178Z,1004.1
2019-03-04T02:53:19.204Z,1004
2019-03-04T02:54:19.209Z,1004.1
2019-03-04T02:55:19.216Z,1004.2
2019-03-04T02:56:19.319Z,1004.1
2019-03-04T02:57:19.258Z,1004.1
2019-03-04T02:58:19.307Z,1004.1
2019-03-04T02:59:19.358Z,1004.2
2019-03-04T03:00:19.330Z,1004.1
2019-03-04T03:01:19.289Z,1004.1
2019-03-04T03:02:19.342Z,1004.1
2019-03-04T03:03:19.334Z,1004.1
2019-03-04T03:04:19.350Z,1004.1
2019-03-04T03:05:19.367Z,1004
2019-03-04T03:06:19.364Z,1004
2019-03-04T03:07:19.386Z,1003.9
2019-03-04T03:08:19.359Z,1003.9
2019-03-04T03:09:19.413Z,1003.9
2019-03-04T03:10:19.365Z,1003.9
2019-03-04T03:11:19.407Z,1003.8
2019-03-04T03:12:19.407Z,1003.9
2019-03-04T03:13:19.449Z,1003.8
2019-03-04T03:14:19.370Z,1003.7
2019-03-04T03:15:19.388Z,1003.8
2019-03-04T03:16:19.391Z,1003.8
2019-03-04T03:17:19.390Z,1003.7
2019-03-04T03:18:19.422Z,1003.7
2019-03-04T03:19:19.457Z,1003.7
2019-03-04T03:20:19.400Z,1003.6
2019-03-04T03:21:19.426Z,1003.5
2019-03-04T03:22:19.462Z,1003.5
2019-03-04T03:23:19.511Z,1003.5
2019-03-04T03:24:19.550Z,1003.5
2019-03-04T03:25:19.664Z,1003.4
2019-03-04T03:26:22.068Z,1003.5
2019-03-04T03:27:19.603Z,1003.5
2019-03-04T03:28:19.630Z,1003.4
2019-03-04T03:29:19.653Z,1003.3
2019-03-04T03:30:19.704Z,1003.4
2019-03-04T03:31:19.760Z,1003.3
2019-03-04T03:32:19.774Z,1003.3
2019-03-04T03:33:19.856Z,1003.4
2019-03-04T03:34:19.892Z,1003.3
2019-03-04T03:35:19.846Z,1003.3
2019-03-04T03:36:19.866Z,1003.2
2019-03-04T03:37:19.982Z,1003.3
2019-03-04T03:38:19.929Z,1003.1
2019-03-04T03:39:19.964Z,1003.2
2019-03-04T03:40:20.102Z,1003.2
2019-03-04T03:41:20.077Z,1003.2
2019-03-04T03:42:20.065Z,1003.1
2019-03-04T03:43:20.104Z,1003.1
2019-03-04T03:44:20.142Z,1003
2019-03-04T03:45:20.171Z,1003
2019-03-04T03:46:20.209Z,1003
2019-03-04T03:47:20.271Z,1003.2
2019-03-04T03:48:20.277Z,1003.1
2019-03-04T03:49:20.286Z,1003.2
2019-03-04T03:50:20.369Z,1003.1
2019-03-04T03:51:20.325Z,1003.2
2019-03-04T03:52:20.409Z,1003.3
2019-03-04T03:53:20.405Z,1003.1
2019-03-04T03:54:20.405Z,1003.1
2019-03-04T03:55:20.473Z,1003
2019-03-04T03:56:20.483Z,1003
2019-03-04T03:57:20.511Z,1002.9
2019-03-04T03:58:20.540Z,1002.9
2019-03-04T03:59:20.563Z,1002.9
2019-03-04T04:00:20.586Z,1003
2019-03-04T04:01:20.610Z,1002.9
2019-03-04T04:02:20.638Z,1002.9
2019-03-04T04:03:20.702Z,1002.9
2019-03-04T04:04:20.699Z,1002.9
2019-03-04T04:05:20.718Z,1002.9
2019-03-04T04:06:20.735Z,1002.9
2019-03-04T04:07:20.769Z,1002.9
2019-03-04T04:08:20.787Z,1002.9
2019-03-04T04:09:20.798Z,1002.9
2019-03-04T04:10:20.843Z,1002.9
2019-03-04T04:11:20.813Z,1002.9
2019-03-04T04:12:20.866Z,1002.9
2019-03-04T04:13:20.875Z,1002.9
2019-03-04T04:14:20.916Z,1002.8
2019-03-04T04:15:20.947Z,1002.8
2019-03-04T04:16:20.890Z,1002.8
2019-03-04T04:17:20.929Z,1002.8
2019-03-04T04:18:20.950Z,1002.8
2019-03-04T04:19:21.020Z,1002.8
2019-03-04T04:20:21.024Z,1002.7
2019-03-04T04:21:21.041Z,1002.8
2019-03-04T04:22:21.061Z,1002.6
2019-03-04T04:23:21.091Z,1002.9
2019-03-04T04:24:21.082Z,1002.9
2019-03-04T04:25:21.160Z,1002.8
2019-03-04T04:26:21.083Z,1002.8
2019-03-04T04:27:21.130Z,1002.7
2019-03-04T04:28:21.161Z,1002.8
2019-03-04T04:29:21.171Z,1002.7
2019-03-04T04:30:21.211Z,1002.7
2019-03-04T04:31:21.188Z,1002.7
2019-03-04T04:32:21.233Z,1002.7
2019-03-04T04:33:21.196Z,1002.7
2019-03-04T04:34:21.233Z,1002.6
2019-03-04T04:35:21.286Z,1002.5
2019-03-04T04:36:21.281Z,1002.6
2019-03-04T04:37:21.287Z,1002.5
2019-03-04T04:38:21.410Z,1002.4
2019-03-04T04:39:21.399Z,1002.4
2019-03-04T04:40:21.295Z,1002.3
2019-03-04T04:41:21.325Z,1002.4
2019-03-04T04:42:21.319Z,1002.3
2019-03-04T04:43:21.334Z,1002.3
2019-03-04T04:44:21.328Z,1002.2
2019-03-04T04:45:21.338Z,1002.2
2019-03-04T04:46:21.367Z,1002.1
2019-03-04T04:47:21.363Z,1002.1
2019-03-04T04:48:21.415Z,1002.1
2019-03-04T04:49:21.393Z,1002.1
2019-03-04T04:50:21.367Z,1002.1
2019-03-04T04:51:21.392Z,1002
2019-03-04T04:52:23.259Z,1001.9
2019-03-04T04:53:21.371Z,1002
2019-03-04T04:54:21.372Z,1002
2019-03-04T04:55:21.412Z,1002
2019-03-04T04:56:21.405Z,1001.9
2019-03-04T04:57:21.428Z,1001.9
2019-03-04T04:58:21.395Z,1001.8
2019-03-04T04:59:21.409Z,1001.8
2019-03-04T05:00:21.457Z,1001.9
2019-03-04T05:01:21.495Z,1001.8
2019-03-04T05:02:21.419Z,1001.8
2019-03-04T05:03:21.440Z,1001.8
2019-03-04T05:04:21.451Z,1001.8
2019-03-04T05:05:21.436Z,1001.7
2019-03-04T05:06:21.453Z,1001.7
2019-03-04T05:07:22.517Z,1001.6
2019-03-04T05:08:24.104Z,1001.7
2019-03-04T05:09:21.457Z,1001.7
2019-03-04T05:10:21.468Z,1001.6
2019-03-04T05:11:21.606Z,1001.6
2019-03-04T05:12:21.577Z,1001.7
2019-03-04T05:13:21.561Z,1001.6
2019-03-04T05:14:21.509Z,1001.5
2019-03-04T05:15:21.499Z,1001.5
2019-03-04T05:16:21.600Z,1001.5
2019-03-04T05:17:21.498Z,1001.4
2019-03-04T05:18:21.480Z,1001.4
2019-03-04T05:19:21.540Z,1001.4
2019-03-04T05:20:21.627Z,1001.3
2019-03-04T05:21:21.591Z,1001.3
2019-03-04T05:22:21.602Z,1001.3
2019-03-04T05:23:21.665Z,1001.2
2019-03-04T05:24:21.641Z,1001.2
2019-03-04T05:25:21.733Z,1001.2
2019-03-04T05:26:21.753Z,1001.2
2019-03-04T05:27:21.733Z,1001.2
2019-03-04T05:28:21.761Z,1001.1
2019-03-04T05:29:21.780Z,1001.2
2019-03-04T05:30:21.809Z,1001.1
2019-03-04T05:31:21.854Z,1001
2019-03-04T05:32:21.884Z,1001.1
2019-03-04T05:33:21.904Z,1001
2019-03-04T05:34:21.900Z,1000.9
2019-03-04T05:35:21.909Z,1001
2019-03-04T05:36:21.957Z,1000.9
2019-03-04T05:37:21.946Z,1000.9
2019-03-04T05:38:21.976Z,1001
2019-03-04T05:39:22.024Z,1000.9
2019-03-04T05:40:22.058Z,1000.9
2019-03-04T05:41:22.046Z,1000.9
2019-03-04T05:42:22.060Z,1000.9
2019-03-04T05:43:22.070Z,1000.8
2019-03-04T05:44:22.102Z,1000.8
2019-03-04T05:45:22.144Z,1000.8
2019-03-04T05:46:22.129Z,1000.9
2019-03-04T05:47:22.395Z,1000.9
2019-03-04T05:48:22.210Z,1000.9
2019-03-04T05:49:22.237Z,1000.9
2019-03-04T05:50:22.213Z,1000.9
2019-03-04T05:51:22.219Z,1000.9
2019-03-04T05:52:22.266Z,1000.9
2019-03-04T05:53:22.274Z,1000.9
2019-03-04T05:54:22.257Z,1000.8
2019-03-04T05:55:22.260Z,1000.9
2019-03-04T05:56:22.325Z,1000.8
2019-03-04T05:57:22.279Z,1000.7
2019-03-04T05:58:22.282Z,1000.7
2019-03-04T05:59:22.312Z,1000.7
2019-03-04T06:00:22.343Z,1000.6
2019-03-04T06:01:22.306Z,1000.6
2019-03-04T06:02:22.307Z,1000.6
2019-03-04T06:03:22.372Z,1000.6
2019-03-04T06:04:22.363Z,1000.6
2019-03-04T06:05:22.385Z,1000.7
2019-03-04T06:06:22.354Z,1000.7
2019-03-04T06:07:22.386Z,1000.6
2019-03-04T06:08:22.373Z,1000.7
2019-03-04T06:09:22.362Z,1000.6
2019-03-04T06:10:22.373Z,1000.6
2019-03-04T06:11:22.374Z,1000.5
2019-03-04T06:12:22.421Z,1000.4
2019-03-04T06:13:22.380Z,1000.5
2019-03-04T06:14:22.396Z,1000.5
2019-03-04T06:15:22.394Z,1000.5
2019-03-04T06:16:22.447Z,1000.4
2019-03-04T06:17:22.406Z,1000.4
2019-03-04T06:18:22.417Z,1000.3
2019-03-04T06:19:22.391Z,1000.4
2019-03-04T06:20:23.487Z,1000.2
2019-03-04T06:21:22.515Z,1000.4
2019-03-04T06:22:22.526Z,1000.2
2019-03-04T06:23:22.623Z,1000.2
2019-03-04T06:24:22.631Z,1000.2
2019-03-04T06:25:22.682Z,1000.2
2019-03-04T06:26:22.725Z,1000.2
2019-03-04T06:27:23.122Z,1000.1
2019-03-04T06:28:22.786Z,1000.1
2019-03-04T06:29:22.872Z,1000.1
2019-03-04T06:30:22.863Z,1000
2019-03-04T06:31:22.895Z,1000
2019-03-04T06:32:22.859Z,1000.1
2019-03-04T06:33:25.195Z,1000
2019-03-04T06:34:25.177Z,1000
2019-03-04T06:35:22.963Z,999.9
2019-03-04T06:36:23.012Z,999.9
2019-03-04T06:37:23.057Z,999.9
2019-03-04T06:38:23.055Z,1000
2019-03-04T06:39:23.128Z,999.9
2019-03-04T06:40:23.162Z,999.9
2019-03-04T06:41:23.156Z,999.7
2019-03-04T06:42:23.342Z,999.7
2019-03-04T06:43:23.197Z,999.6
2019-03-04T06:44:23.313Z,999.6
2019-03-04T06:45:23.283Z,999.7
2019-03-04T06:46:23.313Z,999.8
2019-03-04T06:47:23.304Z,999.8
2019-03-04T06:48:23.270Z,999.6
2019-03-04T06:49:24.158Z,999.7
2019-03-04T06:50:23.296Z,999.8
2019-03-04T06:51:23.332Z,999.7
2019-03-04T06:52:23.384Z,999.8
2019-03-04T06:53:23.378Z,999.6
2019-03-04T06:54:23.407Z,999.7
2019-03-04T06:55:23.440Z,999.6
2019-03-04T06:56:23.484Z,999.8
2019-03-04T06:57:28.309Z,999.5
2019-03-04T06:58:23.519Z,999.7
2019-03-04T06:59:23.524Z,999.6
2019-03-04T07:00:23.561Z,999.7
2019-03-04T07:01:23.696Z,999.6
2019-03-04T07:02:23.613Z,999.5
2019-03-04T07:03:23.671Z,999.6
2019-03-04T07:04:23.638Z,999.5
2019-03-04T07:05:23.679Z,999.4
2019-03-04T07:06:23.681Z,999.5
2019-03-04T07:07:23.706Z,999.5
2019-03-04T07:08:23.661Z,999.4
2019-03-04T07:09:23.686Z,999.6
2019-03-04T07:10:23.712Z,999.5
2019-03-04T07:11:23.721Z,999.4
2019-03-04T07:12:24.540Z,999.6
2019-03-04T07:13:23.761Z,999.7
2019-03-04T07:14:23.741Z,999.5
2019-03-04T07:15:23.752Z,999.6
2019-03-04T07:16:23.791Z,999.5
2019-03-04T07:17:23.805Z,999.6
2019-03-04T07:18:23.809Z,999.4
2019-03-04T07:19:23.821Z,999.4
2019-03-04T07:20:23.844Z,999.6
2019-03-04T07:21:23.818Z,999.5
2019-03-04T07:22:23.836Z,999.5
2019-03-04T07:23:23.877Z,999.4
2019-03-04T07:24:23.909Z,999.3
2019-03-04T07:25:23.921Z,999.4
2019-03-04T07:26:23.876Z,999.3
2019-03-04T07:27:23.920Z,999.3
2019-03-04T07:28:23.910Z,999.3
2019-03-04T07:30:23.942Z,999.4
2019-03-04T07:30:28.832Z,999.3
2019-03-04T07:31:23.922Z,999.2
2019-03-04T07:32:23.932Z,999.1
2019-03-04T07:33:23.949Z,999.1
2019-03-04T07:34:23.945Z,999.1
2019-03-04T07:35:23.913Z,999
2019-03-04T07:36:23.955Z,999
2019-03-04T07:37:23.934Z,999
2019-03-04T07:38:23.983Z,998.9
2019-03-04T07:39:23.916Z,999
2019-03-04T07:40:23.984Z,999.1
2019-03-04T07:41:23.986Z,998.9
2019-03-04T07:42:23.972Z,999.1
2019-03-04T07:43:24.004Z,998.8
2019-03-04T07:44:23.996Z,998.9
2019-03-04T07:45:24.042Z,999
2019-03-04T07:46:24.066Z,998.9
2019-03-04T07:47:24.074Z,998.8
2019-03-04T07:48:24.109Z,998.8
2019-03-04T07:49:24.158Z,998.8
2019-03-04T07:50:24.184Z,998.7
2019-03-04T07:51:24.234Z,998.8
2019-03-04T07:52:24.251Z,998.7
2019-03-04T07:53:24.372Z,998.6
2019-03-04T07:54:24.325Z,998.5
2019-03-04T07:55:24.358Z,998.6
2019-03-04T07:56:24.365Z,998.4
2019-03-04T07:57:24.448Z,998.4
2019-03-04T07:58:26.695Z,998.4
2019-03-04T07:59:24.548Z,998.3
2019-03-04T08:00:25.057Z,998.3
2019-03-04T08:01:24.639Z,998.2
2019-03-04T08:02:24.577Z,998.2
2019-03-04T08:03:24.621Z,998.3
2019-03-04T08:04:24.645Z,998.2
2019-03-04T08:05:24.757Z,998.1
2019-03-04T08:06:24.705Z,998.2
2019-03-04T08:07:24.746Z,998.2
2019-03-04T08:08:24.759Z,998.1
2019-03-04T08:09:24.816Z,998
2019-03-04T08:10:24.874Z,997.9
2019-03-04T08:11:24.829Z,997.8
2019-03-04T08:12:24.927Z,997.7
2019-03-04T08:13:24.927Z,997.8
2019-03-04T08:14:24.952Z,997.8
2019-03-04T08:15:25.075Z,997.7
2019-03-04T08:16:25.031Z,997.7
2019-03-04T08:17:25.032Z,997.7
2019-03-04T08:18:25.083Z,997.5
2019-03-04T08:19:25.105Z,997.3
2019-03-04T08:20:25.147Z,997.4
2019-03-04T08:21:25.143Z,997.4
2019-03-04T08:22:25.191Z,997.3
2019-03-04T08:23:25.209Z,997.3
2019-03-04T08:24:25.209Z,997.3
2019-03-04T08:25:25.201Z,997.5
2019-03-04T08:26:25.225Z,997.4
2019-03-04T08:27:25.327Z,997.2
2019-03-04T08:28:25.234Z,997.4
2019-03-04T08:29:25.295Z,997.3
2019-03-04T08:30:25.316Z,997.3
2019-03-04T08:31:25.338Z,997.2
2019-03-04T08:32:25.342Z,997.2
2019-03-04T08:33:25.339Z,997.2
2019-03-04T08:34:30.921Z,997.1
2019-03-04T08:35:25.417Z,997.2
2019-03-04T08:36:25.490Z,997.1
2019-03-04T08:37:25.420Z,997.1
2019-03-04T08:38:25.458Z,997.1
2019-03-04T08:39:25.462Z,997.1
2019-03-04T08:40:25.469Z,997.1
2019-03-04T08:41:25.464Z,997.1
2019-03-04T08:42:25.475Z,997.2
2019-03-04T08:43:25.473Z,997
2019-03-04T08:44:25.548Z,997.1
2019-03-04T08:45:25.555Z,997
2019-03-04T08:46:25.646Z,997
2019-03-04T08:47:25.546Z,997.1
2019-03-04T08:48:25.616Z,997
2019-03-04T08:49:25.569Z,997.1
2019-03-04T08:50:25.610Z,997.1
2019-03-04T08:51:25.636Z,997
2019-03-04T08:52:25.636Z,997.1
2019-03-04T08:53:25.655Z,997
2019-03-04T08:54:25.618Z,997
2019-03-04T08:55:25.640Z,997
2019-03-04T08:56:25.632Z,996.9
2019-03-04T08:57:25.746Z,997
2019-03-04T08:58:25.682Z,996.8
2019-03-04T08:59:25.770Z,996.9
2019-03-04T09:00:25.654Z,996.9
2019-03-04T09:01:25.671Z,996.8
2019-03-04T09:02:25.722Z,996.8
2019-03-04T09:03:25.757Z,996.6
2019-03-04T09:04:25.720Z,996.8
2019-03-04T09:05:25.786Z,996.7
2019-03-04T09:06:25.698Z,996.8
2019-03-04T09:07:25.704Z,996.7
2019-03-04T09:08:25.747Z,996.8
2019-03-04T09:09:25.720Z,996.6
2019-03-04T09:10:25.718Z,996.7
2019-03-04T09:11:25.712Z,996.7
2019-03-04T09:12:25.734Z,996.7
2019-03-04T09:13:25.720Z,996.7
2019-03-04T09:14:25.724Z,996.8
2019-03-04T09:15:25.744Z,996.7
2019-03-04T09:16:25.753Z,996.7
2019-03-04T09:17:25.758Z,996.7
2019-03-04T09:18:25.749Z,996.7
2019-03-04T09:19:25.794Z,996.6
2019-03-04T09:20:25.784Z,996.6
2019-03-04T09:21:25.822Z,996.6
2019-03-04T09:22:25.819Z,996.6
2019-03-04T09:23:25.823Z,996.8
2019-03-04T09:24:25.806Z,996.6
2019-03-04T09:25:30.242Z,996.7
2019-03-04T09:26:28.338Z,996.6
2019-03-04T09:27:25.805Z,996.6
2019-03-04T09:28:25.834Z,996.5
2019-03-04T09:29:25.827Z,996.6
2019-03-04T09:30:25.860Z,996.6
2019-03-04T09:31:26.906Z,996.5
2019-03-04T09:32:25.864Z,996.4
2019-03-04T09:33:25.892Z,996.4
2019-03-04T09:34:25.842Z,996.4
2019-03-04T09:35:25.847Z,996.3
2019-03-04T09:36:25.877Z,996.4
2019-03-04T09:37:25.889Z,996.4
2019-03-04T09:38:25.864Z,996.5
2019-03-04T09:39:25.881Z,996.5
2019-03-04T09:40:25.891Z,996.6
2019-03-04T09:41:25.905Z,996.4
2019-03-04T09:42:25.894Z,996.4
2019-03-04T09:43:25.888Z,996.4
2019-03-04T09:44:25.925Z,996.4
2019-03-04T09:45:25.904Z,996.5
2019-03-04T09:46:26.068Z,996.4
2019-03-04T09:47:26.011Z,996.4
2019-03-04T09:48:25.990Z,996.5
2019-03-04T09:49:26.042Z,996.5
2019-03-04T09:50:26.013Z,996.6
2019-03-04T09:51:26.099Z,996.5
2019-03-04T09:52:26.008Z,996.6
2019-03-04T09:53:26.047Z,996.5
2019-03-04T09:54:26.113Z,996.6
2019-03-04T09:55:26.089Z,996.4
2019-03-04T09:56:26.104Z,996.5
2019-03-04T09:57:26.146Z,996.3
2019-03-04T09:58:26.143Z,996.4
2019-03-04T09:59:26.125Z,996.4
2019-03-04T10:00:26.119Z,996.3
2019-03-04T10:01:26.176Z,996.2
2019-03-04T10:02:26.184Z,996.3
2019-03-04T10:03:26.203Z,996.2
2019-03-04T10:04:26.184Z,996.2
2019-03-04T10:05:26.181Z,996.2
2019-03-04T10:06:26.243Z,996.2
2019-03-04T10:07:26.249Z,996.3
2019-03-04T10:08:32.701Z,996.2
2019-03-04T10:09:26.217Z,996.1
2019-03-04T10:10:26.249Z,996.1
2019-03-04T10:11:26.276Z,996.2
2019-03-04T10:12:27.097Z,996.3
2019-03-04T10:13:26.279Z,996.4
2019-03-04T10:14:26.366Z,996.2
2019-03-04T10:15:26.261Z,996.3
2019-03-04T10:16:26.369Z,996.3
2019-03-04T10:17:26.332Z,996.2
2019-03-04T10:18:26.276Z,996.2
2019-03-04T10:19:26.343Z,996.1
2019-03-04T10:20:26.288Z,996.1
2019-03-04T10:21:26.296Z,996.2
2019-03-04T10:22:26.582Z,996.3
2019-03-04T10:23:26.383Z,996.4
2019-03-04T10:24:26.305Z,996.4
2019-03-04T10:25:26.286Z,996.3
2019-03-04T10:26:26.325Z,996.4
2019-03-04T10:27:26.392Z,996.2
2019-03-04T10:28:26.363Z,996.1
2019-03-04T10:29:26.425Z,996.3
2019-03-04T10:30:26.567Z,996.4
2019-03-04T10:31:26.645Z,996.3
2019-03-04T10:32:26.512Z,996.5
2019-03-04T10:32:48.108Z,996.5
2019-03-04T10:33:47.944Z,996.5
2019-03-04T10:34:47.969Z,996.5
2019-03-04T10:35:47.965Z,996.4
2019-03-04T10:36:48.034Z,996.4
2019-03-04T10:37:47.999Z,996.6
2019-03-04T10:38:47.974Z,996.7
2019-03-04T10:39:48.079Z,996.7
2019-03-04T10:40:50.396Z,996.6
2019-03-04T10:41:48.051Z,996.6
2019-03-04T10:42:48.035Z,996.6
2019-03-04T10:43:48.050Z,996.6
2019-03-04T10:44:48.068Z,996.7
2019-03-04T10:45:48.168Z,996.7
2019-03-04T10:46:48.117Z,996.7
2019-03-04T10:47:48.131Z,996.7
2019-03-04T10:48:48.141Z,996.8
2019-03-04T10:49:48.104Z,996.8
2019-03-04T10:50:48.208Z,996.8
2019-03-04T10:51:48.130Z,996.8
2019-03-04T10:52:48.173Z,996.8
2019-03-04T10:53:48.196Z,996.8
2019-03-04T10:54:48.190Z,996.4
2019-03-04T10:55:48.191Z,996.4
2019-03-04T10:56:48.237Z,996.2
2019-03-04T10:57:48.222Z,996
2019-03-04T10:58:48.208Z,996.2
2019-03-04T10:59:48.259Z,996.3
2019-03-04T11:00:48.223Z,996.2
2019-03-04T11:01:49.979Z,996.3
2019-03-04T11:02:48.281Z,995.9
2019-03-04T11:03:48.271Z,996
2019-03-04T11:04:48.287Z,995.9
2019-03-04T11:05:48.273Z,995.7
2019-03-04T11:06:48.321Z,996
2019-03-04T11:07:48.318Z,995.8
2019-03-04T11:08:48.305Z,995.8
2019-03-04T11:09:48.292Z,995.5
2019-03-04T11:10:48.351Z,995.8
2019-03-04T11:11:48.345Z,995.7
2019-03-04T11:12:48.374Z,995.9
2019-03-04T11:13:48.368Z,996
2019-03-04T11:14:48.351Z,995.6
2019-03-04T11:15:48.348Z,996
2019-03-04T11:16:48.466Z,995.5
2019-03-04T11:17:48.411Z,995.5
2019-03-04T11:18:48.388Z,995.3
2019-03-04T11:19:48.443Z,995.4
2019-03-04T11:20:48.451Z,995.3
2019-03-04T11:21:48.434Z,995.6
2019-03-04T11:22:48.445Z,995.4
2019-03-04T11:23:48.490Z,995.3
2019-03-04T11:24:48.478Z,995.6
2019-03-04T11:25:48.495Z,995.5
2019-03-04T11:26:48.517Z,995.7
2019-03-04T11:27:48.529Z,995.6
2019-03-04T11:28:48.522Z,995.5
2019-03-04T11:29:48.553Z,995.5
2019-03-04T11:30:48.584Z,995.6
2019-03-04T11:31:48.570Z,995.4
2019-03-04T11:32:48.612Z,995.4
2019-03-04T11:33:48.565Z,995.6
2019-03-04T11:34:48.578Z,995.6
2019-03-04T11:35:49.697Z,995.5
2019-03-04T11:36:48.587Z,995.5
2019-03-04T11:37:48.606Z,995.6
2019-03-04T11:38:48.595Z,995.8
2019-03-04T11:39:48.600Z,995.6
2019-03-04T11:40:48.603Z,995.5
2019-03-04T11:41:48.584Z,995.3
2019-03-04T11:42:50.503Z,995.3
2019-03-04T11:43:48.627Z,995.3
2019-03-04T11:44:48.651Z,995.2
2019-03-04T11:45:48.738Z,995.1
2019-03-04T11:46:48.726Z,995.5
2019-03-04T11:47:48.798Z,995.1
2019-03-04T11:48:48.829Z,995.3
2019-03-04T11:49:48.842Z,995.4
2019-03-04T11:50:48.914Z,995.3
2019-03-04T11:51:48.939Z,995.2
2019-03-04T11:52:48.949Z,995.3
2019-03-04T11:53:48.990Z,995.3
2019-03-04T11:54:49.009Z,995.4
2019-03-04T11:55:49.013Z,995.4
2019-03-04T11:56:49.109Z,995.3
2019-03-04T11:57:49.158Z,995.4
2019-03-04T11:58:49.107Z,995.8
2019-03-04T11:59:49.140Z,995.7
2019-03-04T12:00:49.200Z,995.4
2019-03-04T12:01:49.237Z,995.6
2019-03-04T12:02:49.242Z,995.8
2019-03-04T12:03:49.309Z,995.7
2019-03-04T12:04:49.342Z,995.7
2019-03-04T12:05:49.433Z,995.4
2019-03-04T12:06:49.401Z,995.4
2019-03-04T12:07:49.375Z,995.4
2019-03-04T12:08:49.453Z,995.2
2019-03-04T12:09:49.442Z,995.4
2019-03-04T12:10:49.457Z,995.2
2019-03-04T12:11:49.522Z,995.4
2019-03-04T12:12:49.579Z,995.4
2019-03-04T12:13:49.562Z,995.4
2019-03-04T12:14:49.660Z,995.7
2019-03-04T12:15:49.638Z,995.4
2019-03-04T12:16:50.812Z,995.4
2019-03-04T12:17:49.715Z,995.4
2019-03-04T12:18:49.765Z,995.3
2019-03-04T12:19:49.799Z,995.4
2019-03-04T12:20:49.761Z,995.4
2019-03-04T12:21:49.782Z,995.3
2019-03-04T12:22:49.895Z,995.3
2019-03-04T12:23:49.876Z,995.3
2019-03-04T12:24:49.884Z,995.5
2019-03-04T12:25:49.872Z,995.4
2019-03-04T12:26:49.928Z,995.6
2019-03-04T12:27:49.970Z,995.8
2019-03-04T12:28:49.947Z,995.5
2019-03-04T12:29:49.981Z,995.7
2019-03-04T12:30:49.996Z,995.6
2019-03-04T12:31:49.978Z,995.6
2019-03-04T12:32:50.030Z,995.5
2019-03-04T12:33:50.022Z,995.8
2019-03-04T12:34:50.060Z,995.7
2019-03-04T12:35:50.059Z,996.2
2019-03-04T12:36:50.090Z,995.8
2019-03-04T12:37:50.084Z,995.5
2019-03-04T12:38:50.181Z,995.4
2019-03-04T12:39:50.120Z,995.6
2019-03-04T12:40:50.143Z,995.5
2019-03-04T12:41:50.193Z,995.6
2019-03-04T12:42:50.133Z,996.1